Time;durP1;ratioP1;P1;durP2;ratioP2;P2;SDS_P1;SDS_P2;PMS_P1;PMS_P2;Temp;Humidity;BMP_temperature;BMP_pressure;BME280_temperature;BME280_humidity;BME280_pressure;Samples;Min_cycle;Max_cycle;Signal;HPM_P1;HPM_P2
2023/07/19 00:01:54;;;;;;;6.15;3.10;;;;;;;;;;5111792;28;20115;-83
2023/07/19 00:04:21;;;;;;;4.90;2.90;;;;;;;;;;5117395;28;20459;-83
2023/07/19 00:06:49;;;;;;;3.22;2.92;;;;;;;;;;5118325;28;20043;-84
2023/07/19 00:09:16;;;;;;;4.88;3.10;;;;;;;;;;5117794;28;20092;-84
2023/07/19 00:11:43;;;;;;;4.10;2.70;;;;;;;;;;5116376;28;20055;-83
2023/07/19 00:14:10;;;;;;;4.35;3.22;;;;;;;;;;5117584;28;20400;-84
2023/07/19 00:16:37;;;;;;;4.28;2.78;;;;;;;;;;5116502;28;20047;-83
2023/07/19 00:19:05;;;;;;;3.42;3.17;;;;;;;;;;5115624;28;20040;-84
2023/07/19 00:21:47;;;;;;;4.22;2.83;;;;;;;;;;5116354;28;20040;-83
2023/07/19 00:24:14;;;;;;;4.70;2.80;;;;;;;;;;5116416;28;20135;-82
2023/07/19 00:26:41;;;;;;;5.60;2.75;;;;;;;;;;5115438;28;20055;-83
2023/07/19 00:29:09;;;;;;;3.22;2.72;;;;;;;;;;5114317;28;20486;-83
2023/07/19 00:31:36;;;;;;;5.13;2.83;;;;;;;;;;5113819;28;20047;-83
2023/07/19 00:34:03;;;;;;;3.72;2.97;;;;;;;;;;5113499;28;20074;-82
2023/07/19 00:36:30;;;;;;;3.58;2.83;;;;;;;;;;5112776;28;20121;-81
2023/07/19 00:38:58;;;;;;;3.40;3.00;;;;;;;;;;5114903;28;20044;-84
2023/07/19 00:41:25;;;;;;;4.38;3.08;;;;;;;;;;5114296;28;20051;-83
2023/07/19 00:43:52;;;;;;;3.72;3.10;;;;;;;;;;5113267;28;20039;-84
2023/07/19 00:46:21;;;;;;;4.90;3.35;;;;;;;;;;5116356;28;20096;-83
2023/07/19 00:48:48;;;;;;;3.20;3.00;;;;;;;;;;5117931;28;20070;-83
2023/07/19 00:51:17;;;;;;;4.70;3.05;;;;;;;;;;5116223;28;20044;-83
2023/07/19 00:53:45;;;;;;;4.60;3.22;;;;;;;;;;5115928;28;20525;-83
2023/07/19 00:56:13;;;;;;;4.95;2.97;;;;;;;;;;5115023;28;20052;-83
2023/07/19 00:58:40;;;;;;;5.35;2.53;;;;;;;;;;5115554;28;20108;-83
2023/07/19 01:01:09;;;;;;;4.47;3.10;;;;;;;;;;5115832;28;20047;-81
2023/07/19 01:03:36;;;;;;;4.63;3.08;;;;;;;;;;5115006;28;20525;-82
2023/07/19 01:06:03;;;;;;;5.65;3.60;;;;;;;;;;5116277;28;20476;-84
2023/07/19 01:08:31;;;;;;;5.05;2.88;;;;;;;;;;5116331;28;20108;-84
2023/07/19 01:10:58;;;;;;;3.25;2.90;;;;;;;;;;5116858;28;20071;-82
2023/07/19 01:13:26;;;;;;;4.50;3.17;;;;;;;;;;5115172;28;20058;-82
2023/07/19 01:15:53;;;;;;;5.63;3.10;;;;;;;;;;5114483;28;20051;-82
2023/07/19 01:18:20;;;;;;;4.70;2.90;;;;;;;;;;5114346;28;20052;-83
2023/07/19 01:20:47;;;;;;;4.80;2.95;;;;;;;;;;5114301;28;20101;-82
2023/07/19 01:23:24;;;;;;;4.72;3.55;;;;;;;;;;5114207;28;20518;-82
2023/07/19 01:25:52;;;;;;;4.05;3.60;;;;;;;;;;5111922;28;20074;-82
2023/07/19 01:28:19;;;;;;;3.85;3.03;;;;;;;;;;5114467;28;20100;-82
2023/07/19 01:30:46;;;;;;;3.33;3.03;;;;;;;;;;5115484;28;20082;-83
2023/07/19 01:33:13;;;;;;;3.72;2.67;;;;;;;;;;5115315;28;20047;-81
2023/07/19 01:35:58;;;;;;;5.25;3.22;;;;;;;;;;5114419;28;20055;-83
2023/07/19 01:38:25;;;;;;;9.55;3.47;;;;;;;;;;5113797;28;20485;-83
2023/07/19 01:40:52;;;;;;;3.65;3.25;;;;;;;;;;5114562;28;20128;-84
2023/07/19 01:43:20;;;;;;;3.50;3.17;;;;;;;;;;5121618;28;20056;-84
2023/07/19 01:45:47;;;;;;;5.10;3.03;;;;;;;;;;5121136;28;20092;-84
2023/07/19 01:48:14;;;;;;;7.15;3.95;;;;;;;;;;5120319;28;20047;-83
2023/07/19 01:50:45;;;;;;;5.20;3.30;;;;;;;;;;5118756;28;20124;-84
2023/07/19 01:53:12;;;;;;;3.40;2.85;;;;;;;;;;5118948;28;20468;-84
2023/07/19 01:55:40;;;;;;;8.88;3.92;;;;;;;;;;5118602;28;20047;-84
2023/07/19 01:58:10;;;;;;;8.30;3.30;;;;;;;;;;5119499;28;20047;-82
2023/07/19 02:00:38;;;;;;;4.22;3.13;;;;;;;;;;5117457;28;20054;-85
2023/07/19 02:03:05;;;;;;;6.97;3.40;;;;;;;;;;5118020;28;20047;-83
2023/07/19 02:05:32;;;;;;;5.63;3.22;;;;;;;;;;5117421;28;20062;-83
2023/07/19 02:07:59;;;;;;;3.60;3.10;;;;;;;;;;5116990;28;20051;-84
2023/07/19 02:10:26;;;;;;;4.90;3.42;;;;;;;;;;5116561;28;20078;-83
2023/07/19 02:12:54;;;;;;;3.88;3.40;;;;;;;;;;5115641;28;20062;-83
2023/07/19 02:15:21;;;;;;;4.40;3.50;;;;;;;;;;5117446;28;20051;-83
2023/07/19 02:17:48;;;;;;;5.10;3.47;;;;;;;;;;5116628;28;20105;-83
2023/07/19 02:20:19;;;;;;;4.00;3.05;;;;;;;;;;5116439;28;20074;-83
2023/07/19 02:22:49;;;;;;;6.07;3.63;;;;;;;;;;5114936;28;20044;-82
2023/07/19 02:25:16;;;;;;;4.55;3.63;;;;;;;;;;5114383;28;20108;-83
2023/07/19 02:27:43;;;;;;;7.78;3.63;;;;;;;;;;5115611;28;20048;-82
2023/07/19 02:30:11;;;;;;;5.60;3.80;;;;;;;;;;5115121;28;20073;-83
2023/07/19 02:32:39;;;;;;;4.75;3.35;;;;;;;;;;5114222;28;20069;-83
2023/07/19 02:35:06;;;;;;;6.07;3.75;;;;;;;;;;5113819;28;20503;-83
2023/07/19 02:37:33;;;;;;;7.75;3.70;;;;;;;;;;5115237;28;20047;-83
2023/07/19 02:40:01;;;;;;;3.83;3.45;;;;;;;;;;5113287;28;20379;-83
2023/07/19 02:42:28;;;;;;;6.50;3.95;;;;;;;;;;5113178;28;20047;-83
2023/07/19 02:44:55;;;;;;;4.35;3.53;;;;;;;;;;5114680;28;20048;-81
2023/07/19 02:47:22;;;;;;;5.70;3.42;;;;;;;;;;5114320;28;20102;-83
2023/07/19 02:49:51;;;;;;;4.88;3.10;;;;;;;;;;5114196;28;20079;-83
2023/07/19 02:52:18;;;;;;;4.55;3.78;;;;;;;;;;5112817;28;20059;-82
2023/07/19 02:54:45;;;;;;;4.28;3.75;;;;;;;;;;5112936;28;20096;-82
2023/07/19 02:57:12;;;;;;;3.47;3.17;;;;;;;;;;5112369;28;20120;-82
2023/07/19 02:59:40;;;;;;;4.05;3.00;;;;;;;;;;5112128;28;20051;-81
2023/07/19 03:02:07;;;;;;;5.68;3.65;;;;;;;;;;5112572;28;20043;-82
2023/07/19 03:04:34;;;;;;;5.53;2.95;;;;;;;;;;5113594;27;20100;-82
2023/07/19 03:07:02;;;;;;;4.97;3.15;;;;;;;;;;5111658;28;20083;-81
2023/07/19 03:09:29;;;;;;;3.22;2.85;;;;;;;;;;5112339;28;20507;-81
2023/07/19 03:11:56;;;;;;;3.97;2.97;;;;;;;;;;5112112;28;20422;-82
2023/07/19 03:14:23;;;;;;;4.47;3.20;;;;;;;;;;5112502;28;20499;-82
2023/07/19 03:16:51;;;;;;;5.25;3.38;;;;;;;;;;5112965;28;20049;-81
2023/07/19 03:19:18;;;;;;;3.53;3.22;;;;;;;;;;5113616;28;20046;-82
2023/07/19 03:21:45;;;;;;;4.13;3.30;;;;;;;;;;5118607;28;20059;-83
2023/07/19 03:24:13;;;;;;;4.47;3.35;;;;;;;;;;5119002;28;20047;-83
2023/07/19 03:26:40;;;;;;;7.70;3.50;;;;;;;;;;5119262;28;20093;-83
2023/07/19 03:29:08;;;;;;;6.75;3.30;;;;;;;;;;5119528;28;20052;-83
2023/07/19 03:31:35;;;;;;;7.65;3.90;;;;;;;;;;5118114;28;20052;-83
2023/07/19 03:34:03;;;;;;;6.38;3.40;;;;;;;;;;5117208;28;20051;-81
2023/07/19 03:36:30;;;;;;;6.55;3.47;;;;;;;;;;5117574;28;20047;-83
2023/07/19 03:38:57;;;;;;;3.70;3.40;;;;;;;;;;5117273;28;20047;-83
2023/07/19 03:41:25;;;;;;;6.05;3.53;;;;;;;;;;5115827;28;20044;-82
2023/07/19 03:43:52;;;;;;;6.72;3.97;;;;;;;;;;5116964;28;20043;-83
2023/07/19 03:46:19;;;;;;;9.10;4.15;;;;;;;;;;5115283;28;20048;-83
2023/07/19 03:48:46;;;;;;;6.28;3.80;;;;;;;;;;5114196;28;20043;-82
2023/07/19 03:51:14;;;;;;;4.15;3.72;;;;;;;;;;5114307;28;20047;-83
2023/07/19 03:53:41;;;;;;;6.32;3.88;;;;;;;;;;5114078;28;20052;-82
2023/07/19 03:56:08;;;;;;;6.72;4.03;;;;;;;;;;5114308;28;20059;-83
2023/07/19 03:58:38;;;;;;;6.22;4.05;;;;;;;;;;5114552;28;20093;-83
2023/07/19 04:01:06;;;;;;;5.88;4.20;;;;;;;;;;5114123;28;20435;-82
2023/07/19 04:03:33;;;;;;;6.57;4.25;;;;;;;;;;5117351;28;20104;-82
2023/07/19 04:06:00;;;;;;;7.38;4.10;;;;;;;;;;5120700;28;20100;-82
2023/07/19 04:08:27;;;;;;;5.28;3.45;;;;;;;;;;5119423;28;20043;-83
2023/07/19 04:10:55;;;;;;;5.00;3.38;;;;;;;;;;5117832;28;20082;-81
2023/07/19 04:13:22;;;;;;;6.25;3.67;;;;;;;;;;5116044;28;20051;-83
2023/07/19 04:15:49;;;;;;;6.35;3.63;;;;;;;;;;5115489;28;20081;-83
2023/07/19 04:18:16;;;;;;;4.60;3.38;;;;;;;;;;5115512;28;20055;-83
2023/07/19 04:20:44;;;;;;;7.32;3.90;;;;;;;;;;5118765;28;20051;-83
2023/07/19 04:23:11;;;;;;;7.45;3.92;;;;;;;;;;5120011;28;20055;-83
2023/07/19 04:25:39;;;;;;;7.20;3.42;;;;;;;;;;5118705;28;20089;-81
2023/07/19 04:28:06;;;;;;;5.68;4.30;;;;;;;;;;5119064;28;20048;-84
2023/07/19 04:30:34;;;;;;;6.38;3.58;;;;;;;;;;5117364;28;20059;-81
2023/07/19 04:33:04;;;;;;;8.10;3.63;;;;;;;;;;5118294;28;20043;-83
2023/07/19 04:35:32;;;;;;;4.10;3.20;;;;;;;;;;5115374;28;20483;-83
2023/07/19 04:37:59;;;;;;;3.53;3.22;;;;;;;;;;5116403;28;20056;-82
2023/07/19 04:40:26;;;;;;;3.47;3.25;;;;;;;;;;5115392;28;20043;-82
2023/07/19 04:42:53;;;;;;;3.95;3.40;;;;;;;;;;5115036;28;20464;-82
2023/07/19 04:45:20;;;;;;;5.90;3.13;;;;;;;;;;5115509;28;20043;-83
2023/07/19 04:47:47;;;;;;;3.30;3.00;;;;;;;;;;5116049;28;20108;-84
2023/07/19 04:50:15;;;;;;;5.13;2.90;;;;;;;;;;5118942;28;20082;-82
2023/07/19 04:52:46;;;;;;;3.47;3.17;;;;;;;;;;5116568;28;20073;-84
2023/07/19 04:55:13;;;;;;;3.10;2.90;;;;;;;;;;5116533;28;20116;-82
2023/07/19 04:57:41;;;;;;;3.30;2.97;;;;;;;;;;5118040;28;20108;-83
2023/07/19 05:00:11;;;;;;;4.05;2.72;;;;;;;;;;5118684;28;20499;-83
2023/07/19 05:02:39;;;;;;;2.83;2.60;;;;;;;;;;5123604;28;20122;-83
2023/07/19 05:05:07;;;;;;;5.32;3.15;;;;;;;;;;5121380;28;20043;-84
2023/07/19 05:07:34;;;;;;;5.50;3.13;;;;;;;;;;5122292;28;20071;-84
2023/07/19 05:10:05;;;;;;;4.75;2.88;;;;;;;;;;5119076;28;20085;-84
2023/07/19 05:12:32;;;;;;;5.60;3.38;;;;;;;;;;5119067;28;20418;-83
2023/07/19 05:15:00;;;;;;;9.02;3.40;;;;;;;;;;5116415;28;20057;-84
2023/07/19 05:17:27;;;;;;;8.57;3.42;;;;;;;;;;5120254;28;20051;-84
2023/07/19 05:19:54;;;;;;;3.03;2.70;;;;;;;;;;5118454;28;20044;-83
2023/07/19 05:22:21;;;;;;;12.07;3.30;;;;;;;;;;5117993;28;20404;-84
2023/07/19 05:24:49;;;;;;;8.50;2.88;;;;;;;;;;5116533;28;20171;-83
2023/07/19 05:27:17;;;;;;;5.25;3.50;;;;;;;;;;5116525;28;20079;-84
2023/07/19 05:29:44;;;;;;;12.93;3.25;;;;;;;;;;5116497;28;20134;-84
2023/07/19 05:32:11;;;;;;;5.20;2.65;;;;;;;;;;5117475;27;20047;-83
2023/07/19 05:34:39;;;;;;;3.25;2.65;;;;;;;;;;5117945;28;20522;-82
2023/07/19 05:37:06;;;;;;;3.15;2.83;;;;;;;;;;5115556;28;20112;-83
2023/07/19 05:39:36;;;;;;;3.42;2.70;;;;;;;;;;5116104;28;20055;-83
2023/07/19 05:42:04;;;;;;;3.83;1.90;;;;;;;;;;5116998;28;20128;-84
2023/07/19 05:44:32;;;;;;;6.85;2.65;;;;;;;;;;5117351;28;20044;-82
2023/07/19 05:46:59;;;;;;;4.35;2.78;;;;;;;;;;5115097;28;20101;-83
2023/07/19 05:49:26;;;;;;;3.70;2.38;;;;;;;;;;5115436;28;20043;-84
2023/07/19 05:51:53;;;;;;;8.23;2.55;;;;;;;;;;5115241;28;20058;-83
2023/07/19 05:54:21;;;;;;;6.53;2.33;;;;;;;;;;5115873;28;20071;-84
2023/07/19 05:56:48;;;;;;;12.25;3.05;;;;;;;;;;5115368;28;20048;-84
2023/07/19 05:59:16;;;;;;;4.78;2.40;;;;;;;;;;5115664;28;20051;-84
2023/07/19 06:01:43;;;;;;;6.95;2.50;;;;;;;;;;5115080;28;20043;-83
2023/07/19 06:04:11;;;;;;;4.88;2.10;;;;;;;;;;5114698;28;20039;-84
2023/07/19 06:06:38;;;;;;;4.28;2.15;;;;;;;;;;5115953;28;20054;-82
2023/07/19 06:09:06;;;;;;;3.65;2.35;;;;;;;;;;5114481;28;20047;-83
2023/07/19 06:11:33;;;;;;;3.10;2.30;;;;;;;;;;5114962;28;20491;-83
2023/07/19 06:14:01;;;;;;;5.68;2.33;;;;;;;;;;5113534;28;20063;-83
2023/07/19 06:16:29;;;;;;;5.63;2.75;;;;;;;;;;5112841;28;20051;-82
2023/07/19 06:18:56;;;;;;;5.68;2.72;;;;;;;;;;5113016;28;20081;-82
2023/07/19 06:21:25;;;;;;;4.55;2.00;;;;;;;;;;5113085;28;20043;-81
2023/07/19 06:23:52;;;;;;;2.65;2.00;;;;;;;;;;5113150;28;20043;-82
2023/07/19 06:26:19;;;;;;;4.47;2.20;;;;;;;;;;5114010;28;20132;-83
2023/07/19 06:28:46;;;;;;;8.43;2.63;;;;;;;;;;5112687;28;20499;-80
2023/07/19 06:31:14;;;;;;;3.45;2.05;;;;;;;;;;5112916;28;20051;-81
2023/07/19 06:33:41;;;;;;;5.45;2.22;;;;;;;;;;5114101;28;20047;-81
2023/07/19 06:36:08;;;;;;;5.13;2.53;;;;;;;;;;5112603;28;20112;-82
2023/07/19 06:38:36;;;;;;;15.85;3.03;;;;;;;;;;5114193;28;20047;-82
2023/07/19 06:41:04;;;;;;;9.82;2.60;;;;;;;;;;5117323;28;20040;-84
2023/07/19 06:43:32;;;;;;;18.48;3.72;;;;;;;;;;5119436;28;20048;-84
2023/07/19 06:46:00;;;;;;;25.58;4.05;;;;;;;;;;5118546;28;20044;-83
2023/07/19 06:48:27;;;;;;;17.58;3.83;;;;;;;;;;5118732;28;20089;-83
2023/07/19 06:50:56;;;;;;;24.23;3.80;;;;;;;;;;5117114;28;20055;-83
2023/07/19 06:53:24;;;;;;;21.00;4.05;;;;;;;;;;5119252;28;20424;-83
2023/07/19 06:55:53;;;;;;;46.83;5.65;;;;;;;;;;5117902;28;20066;-83
2023/07/19 06:58:21;;;;;;;41.88;5.53;;;;;;;;;;5116911;28;20058;-83
2023/07/19 07:00:48;;;;;;;15.55;3.50;;;;;;;;;;5117322;28;20096;-83
2023/07/19 07:03:15;;;;;;;9.48;3.08;;;;;;;;;;5116275;28;20126;-83
2023/07/19 07:05:46;;;;;;;20.77;3.85;;;;;;;;;;5114989;28;20092;-80
2023/07/19 07:08:13;;;;;;;17.60;3.38;;;;;;;;;;5115593;28;20050;-81
2023/07/19 07:10:43;;;;;;;11.35;3.22;;;;;;;;;;5114874;28;20051;-80
2023/07/19 07:13:11;;;;;;;10.50;2.70;;;;;;;;;;5115893;28;20596;-83
2023/07/19 07:15:38;;;;;;;9.80;3.22;;;;;;;;;;5114344;28;20055;-80
2023/07/19 07:18:05;;;;;;;7.43;2.50;;;;;;;;;;5114692;28;20523;-80
2023/07/19 07:20:36;;;;;;;6.78;2.28;;;;;;;;;;5115747;28;20243;-81
2023/07/19 07:23:03;;;;;;;7.22;3.05;;;;;;;;;;5114500;28;20067;-83
2023/07/19 07:25:31;;;;;;;8.13;2.88;;;;;;;;;;5115493;28;20052;-79
2023/07/19 07:27:59;;;;;;;6.72;2.67;;;;;;;;;;5112966;28;20047;-81
2023/07/19 07:30:26;;;;;;;10.55;3.17;;;;;;;;;;5113643;28;20048;-81
2023/07/19 07:32:54;;;;;;;11.48;2.80;;;;;;;;;;5112771;28;20073;-82
2023/07/19 07:35:22;;;;;;;14.90;2.80;;;;;;;;;;5112910;28;20126;-80
2023/07/19 07:37:49;;;;;;;6.93;2.58;;;;;;;;;;5113459;28;20059;-80
2023/07/19 07:40:17;;;;;;;7.60;2.97;;;;;;;;;;5111987;28;20435;-79
2023/07/19 07:42:44;;;;;;;7.30;2.72;;;;;;;;;;5112072;28;20461;-80
2023/07/19 07:45:11;;;;;;;5.57;2.47;;;;;;;;;;5113394;28;20105;-78
2023/07/19 07:47:39;;;;;;;9.57;2.65;;;;;;;;;;5113359;28;20047;-80
2023/07/19 07:50:08;;;;;;;9.45;2.70;;;;;;;;;;5112464;28;20487;-80
2023/07/19 07:52:38;;;;;;;8.80;2.45;;;;;;;;;;5111596;28;20134;-79
2023/07/19 07:55:06;;;;;;;8.55;2.40;;;;;;;;;;5111040;28;20472;-80
2023/07/19 07:57:33;;;;;;;9.23;2.53;;;;;;;;;;5111465;28;20044;-79
2023/07/19 08:00:01;;;;;;;5.13;2.35;;;;;;;;;;5111534;28;20463;-79
2023/07/19 08:02:28;;;;;;;7.15;2.03;;;;;;;;;;5112828;28;20050;-80
2023/07/19 08:04:56;;;;;;;13.98;2.65;;;;;;;;;;5111714;28;20051;-78
2023/07/19 08:07:25;;;;;;;5.50;2.35;;;;;;;;;;5112408;28;20047;-79
2023/07/19 08:09:53;;;;;;;3.20;1.90;;;;;;;;;;5111227;28;20052;-79
2023/07/19 08:12:21;;;;;;;4.70;1.85;;;;;;;;;;5113038;28;20048;-80
2023/07/19 08:14:48;;;;;;;3.97;1.90;;;;;;;;;;5112546;28;20048;-79
2023/07/19 08:17:15;;;;;;;2.65;1.63;;;;;;;;;;5111560;28;20048;-79
2023/07/19 08:19:43;;;;;;;6.10;1.95;;;;;;;;;;5112572;28;20055;-81
2023/07/19 08:22:23;;;;;;;3.38;1.70;;;;;;;;;;5120943;28;20124;-81
2023/07/19 08:24:51;;;;;;;3.40;1.80;;;;;;;;;;5119540;28;20052;-81
2023/07/19 08:27:18;;;;;;;8.13;1.88;;;;;;;;;;5118935;28;20048;-81
2023/07/19 08:29:46;;;;;;;3.97;2.08;;;;;;;;;;5118901;28;20043;-81
2023/07/19 08:32:13;;;;;;;9.13;5.38;;;;;;;;;;5117519;28;20050;-81
2023/07/19 08:34:40;;;;;;;7.50;3.20;;;;;;;;;;5116142;28;20056;-80
2023/07/19 08:37:08;;;;;;;4.40;2.05;;;;;;;;;;5115552;28;20506;-81
2023/07/19 08:39:35;;;;;;;5.85;1.70;;;;;;;;;;5117499;28;20495;-80
2023/07/19 08:42:03;;;;;;;3.58;1.70;;;;;;;;;;5116756;28;20396;-82
2023/07/19 08:44:30;;;;;;;9.55;1.77;;;;;;;;;;5116583;28;20050;-80
2023/07/19 08:46:57;;;;;;;5.35;1.92;;;;;;;;;;5116474;28;20051;-81
2023/07/19 08:49:25;;;;;;;4.50;1.33;;;;;;;;;;5115131;28;20039;-80
2023/07/19 08:51:52;;;;;;;4.78;1.75;;;;;;;;;;5113592;28;20048;-83
2023/07/19 08:54:20;;;;;;;4.78;1.70;;;;;;;;;;5115518;28;20048;-81
2023/07/19 08:56:47;;;;;;;6.25;1.90;;;;;;;;;;5114110;28;20048;-81
2023/07/19 08:59:14;;;;;;;10.50;1.75;;;;;;;;;;5113048;28;20430;-79
2023/07/19 09:01:42;;;;;;;3.90;1.38;;;;;;;;;;5112948;28;20055;-79
2023/07/19 09:04:10;;;;;;;4.93;1.83;;;;;;;;;;5113259;28;20047;-80
2023/07/19 09:06:39;;;;;;;4.45;1.55;;;;;;;;;;5116782;28;20088;-79
2023/07/19 09:09:09;;;;;;;2.95;1.33;;;;;;;;;;5117476;28;20047;-81
2023/07/19 09:11:36;;;;;;;1.60;1.50;;;;;;;;;;5116015;28;20051;-79
2023/07/19 09:14:03;;;;;;;3.22;1.70;;;;;;;;;;5116812;28;20101;-80
2023/07/19 09:16:32;;;;;;;3.13;1.58;;;;;;;;;;5115419;28;20047;-79
2023/07/19 09:19:00;;;;;;;3.25;1.70;;;;;;;;;;5115169;28;20051;-80
2023/07/19 09:21:39;;;;;;;4.28;1.52;;;;;;;;;;5115157;28;20048;-80
2023/07/19 09:24:07;;;;;;;1.50;1.40;;;;;;;;;;5116405;28;20043;-79
2023/07/19 09:26:44;;;;;;;3.03;1.75;;;;;;;;;;5114846;28;20580;-81
2023/07/19 09:29:11;;;;;;;2.78;1.80;;;;;;;;;;5115684;28;20415;-80
2023/07/19 09:31:55;;;;;;;1.80;1.70;;;;;;;;;;5114548;28;20047;-78
2023/07/19 09:34:22;;;;;;;2.67;1.60;;;;;;;;;;5115936;28;20075;-80
2023/07/19 09:36:51;;;;;;;3.65;1.88;;;;;;;;;;5114815;28;20584;-79
2023/07/19 09:39:18;;;;;;;3.92;1.60;;;;;;;;;;5115871;28;20044;-79
2023/07/19 09:41:48;;;;;;;5.88;2.05;;;;;;;;;;5115895;28;20044;-76
2023/07/19 09:44:16;;;;;;;2.40;1.95;;;;;;;;;;5114767;28;20067;-79
2023/07/19 09:46:44;;;;;;;4.18;1.60;;;;;;;;;;5115885;28;20054;-78
2023/07/19 09:49:13;;;;;;;4.25;1.77;;;;;;;;;;5114332;28;20048;-78
2023/07/19 09:51:42;;;;;;;2.22;1.63;;;;;;;;;;5113981;28;20058;-80
2023/07/19 09:54:10;;;;;;;9.07;1.63;;;;;;;;;;5114140;28;20465;-79
2023/07/19 09:56:40;;;;;;;2.97;1.60;;;;;;;;;;5115547;28;20100;-80
2023/07/19 09:59:15;;;;;;;2.50;1.90;;;;;;;;;;5115584;28;20495;-77
2023/07/19 10:01:43;;;;;;;3.83;1.70;;;;;;;;;;5121757;28;20077;-83
2023/07/19 10:04:29;;;;;;;1.85;1.67;;;;;;;;;;5122901;28;20079;-83
2023/07/19 10:07:10;;;;;;;2.97;1.40;;;;;;;;;;5122952;28;20040;-82
2023/07/19 10:09:41;;;;;;;3.58;1.30;;;;;;;;;;5123388;28;20040;-82
2023/07/19 10:12:17;;;;;;;3.63;1.40;;;;;;;;;;5124574;28;20052;-78
2023/07/19 10:15:05;;;;;;;2.65;1.50;;;;;;;;;;5123133;28;20047;-82
2023/07/19 10:17:50;;;;;;;4.20;1.50;;;;;;;;;;5122387;28;20503;-80
2023/07/19 10:20:21;;;;;;;3.22;1.50;;;;;;;;;;5121289;28;20047;-81
2023/07/19 10:22:49;;;;;;;4.00;1.80;;;;;;;;;;5121237;28;20097;-80
2023/07/19 10:25:21;;;;;;;6.28;1.60;;;;;;;;;;5123132;28;20104;-79
2023/07/19 10:27:59;;;;;;;3.17;1.67;;;;;;;;;;5122411;28;20096;-79
2023/07/19 10:30:45;;;;;;;4.93;1.38;;;;;;;;;;5120840;28;20392;-80
2023/07/19 10:33:16;;;;;;;6.07;1.35;;;;;;;;;;5123342;28;20499;-81
2023/07/19 10:35:44;;;;;;;2.15;1.33;;;;;;;;;;5121277;28;20368;-80
2023/07/19 10:38:15;;;;;;;4.13;1.40;;;;;;;;;;5119131;28;20043;-79
2023/07/19 10:40:45;;;;;;;4.75;1.50;;;;;;;;;;5119811;28;20526;-81
2023/07/19 10:43:13;;;;;;;3.20;1.48;;;;;;;;;;5120873;28;20044;-83
2023/07/19 10:45:41;;;;;;;6.28;1.30;;;;;;;;;;5120495;28;20056;-81
2023/07/19 10:48:09;;;;;;;9.65;2.13;;;;;;;;;;5118217;28;20443;-81
2023/07/19 10:50:38;;;;;;;4.15;1.30;;;;;;;;;;5119476;28;20040;-80
2023/07/19 10:53:06;;;;;;;4.50;1.33;;;;;;;;;;5118077;28;20058;-82
2023/07/19 10:55:34;;;;;;;2.25;1.70;;;;;;;;;;5118962;28;20101;-77
2023/07/19 10:58:20;;;;;;;2.45;1.52;;;;;;;;;;5118275;28;20051;-83
2023/07/19 11:00:48;;;;;;;5.68;1.90;;;;;;;;;;5117262;28;20047;-80
2023/07/19 11:03:16;;;;;;;2.90;1.65;;;;;;;;;;5118934;28;20051;-80
2023/07/19 11:05:47;;;;;;;8.88;2.10;;;;;;;;;;5120043;28;20044;-79
2023/07/19 11:08:28;;;;;;;1.60;1.50;;;;;;;;;;5116846;28;20047;-78
2023/07/19 11:10:56;;;;;;;3.85;1.75;;;;;;;;;;5114188;28;20044;-79
2023/07/19 11:13:24;;;;;;;3.55;1.40;;;;;;;;;;5115217;28;20101;-79
2023/07/19 11:15:53;;;;;;;1.92;1.48;;;;;;;;;;5115844;28;20039;-81
2023/07/19 11:18:26;;;;;;;1.52;1.42;;;;;;;;;;5114387;28;20050;-81
2023/07/19 11:20:54;;;;;;;2.10;1.85;;;;;;;;;;5114688;28;20051;-80
2023/07/19 11:23:21;;;;;;;6.43;1.80;;;;;;;;;;5113098;28;20096;-82
2023/07/19 11:25:49;;;;;;;2.28;1.60;;;;;;;;;;5115465;28;20059;-80
2023/07/19 11:28:36;;;;;;;6.57;1.52;;;;;;;;;;5117750;28;20388;-82
2023/07/19 11:31:05;;;;;;;2.75;1.65;;;;;;;;;;5116374;28;20451;-79
2023/07/19 11:33:34;;;;;;;4.75;1.45;;;;;;;;;;5115145;28;20077;-78
2023/07/19 11:36:05;;;;;;;3.28;1.48;;;;;;;;;;5115655;28;20058;-79
2023/07/19 11:38:33;;;;;;;4.43;1.42;;;;;;;;;;5116176;28;20051;-80
2023/07/19 11:41:00;;;;;;;3.60;1.52;;;;;;;;;;5114987;28;20092;-80
2023/07/19 11:43:28;;;;;;;3.33;1.40;;;;;;;;;;5121198;28;20082;-80
2023/07/19 11:45:56;;;;;;;1.50;1.40;;;;;;;;;;5121291;28;20069;-80
2023/07/19 11:48:24;;;;;;;1.73;1.63;;;;;;;;;;5119247;28;20121;-80
2023/07/19 11:50:54;;;;;;;3.00;1.50;;;;;;;;;;5119383;28;20078;-79
2023/07/19 11:53:27;;;;;;;1.50;1.30;;;;;;;;;;5119481;28;20059;-79
2023/07/19 11:55:54;;;;;;;4.20;1.67;;;;;;;;;;5116165;28;20060;-80
2023/07/19 11:58:28;;;;;;;4.05;1.60;;;;;;;;;;5115809;28;20048;-80
2023/07/19 12:01:11;;;;;;;3.95;1.50;;;;;;;;;;5117992;28;20090;-79
2023/07/19 12:03:38;;;;;;;2.42;1.25;;;;;;;;;;5116116;28;20043;-79
2023/07/19 12:06:08;;;;;;;2.30;1.30;;;;;;;;;;5116562;28;20043;-79
2023/07/19 12:08:36;;;;;;;7.22;1.52;;;;;;;;;;5115673;28;20059;-79
2023/07/19 12:11:03;;;;;;;1.85;1.48;;;;;;;;;;5118434;28;20046;-81
2023/07/19 12:13:31;;;;;;;1.45;1.20;;;;;;;;;;5115464;28;20043;-80
2023/07/19 12:15:58;;;;;;;2.13;1.50;;;;;;;;;;5116713;28;20445;-81
2023/07/19 12:18:26;;;;;;;3.38;1.65;;;;;;;;;;5115107;28;20044;-78
2023/07/19 12:20:55;;;;;;;1.33;1.23;;;;;;;;;;5114039;28;20043;-80
2023/07/19 12:23:23;;;;;;;4.03;1.70;;;;;;;;;;5113344;28;20412;-80
2023/07/19 12:25:53;;;;;;;4.28;1.52;;;;;;;;;;5113673;28;20071;-79
2023/07/19 12:28:22;;;;;;;2.58;1.40;;;;;;;;;;5116535;28;20419;-80
2023/07/19 12:30:50;;;;;;;2.83;1.40;;;;;;;;;;5116107;28;20048;-80
2023/07/19 12:33:18;;;;;;;3.78;1.70;;;;;;;;;;5115876;28;20055;-78
2023/07/19 12:35:46;;;;;;;5.93;1.75;;;;;;;;;;5114232;28;20564;-80
2023/07/19 12:38:14;;;;;;;3.25;1.75;;;;;;;;;;5114276;28;20047;-79
2023/07/19 12:40:42;;;;;;;4.93;2.45;;;;;;;;;;5118072;28;20093;-80
2023/07/19 12:43:09;;;;;;;1.52;1.40;;;;;;;;;;5117259;28;20047;-79
2023/07/19 12:45:36;;;;;;;1.50;1.40;;;;;;;;;;5117192;28;20040;-81
2023/07/19 12:48:04;;;;;;;1.63;1.52;;;;;;;;;;5115667;28;20543;-79
2023/07/19 12:50:31;;;;;;;6.72;1.98;;;;;;;;;;5116237;28;20062;-78
2023/07/19 12:52:58;;;;;;;3.55;1.85;;;;;;;;;;5117802;28;20066;-79
2023/07/19 12:55:25;;;;;;;4.30;1.60;;;;;;;;;;5116654;28;20086;-78
2023/07/19 12:57:53;;;;;;;8.68;1.92;;;;;;;;;;5116247;28;20052;-78
2023/07/19 13:00:20;;;;;;;2.95;1.80;;;;;;;;;;5116577;28;20043;-79
2023/07/19 13:02:48;;;;;;;2.08;1.85;;;;;;;;;;5115105;28;20131;-79
2023/07/19 13:05:16;;;;;;;4.35;1.80;;;;;;;;;;5115689;28;20134;-79
2023/07/19 13:07:43;;;;;;;4.10;1.60;;;;;;;;;;5116700;28;20077;-78
2023/07/19 13:10:13;;;;;;;2.75;1.60;;;;;;;;;;5115056;28;20097;-79
2023/07/19 13:12:41;;;;;;;1.80;1.70;;;;;;;;;;5115405;28;20058;-78
2023/07/19 13:15:09;;;;;;;2.70;1.83;;;;;;;;;;5115883;28;20130;-80
2023/07/19 13:17:36;;;;;;;2.08;1.70;;;;;;;;;;5114821;28;20079;-77
2023/07/19 13:20:08;;;;;;;6.70;1.90;;;;;;;;;;5115142;28;20101;-78
2023/07/19 13:22:36;;;;;;;5.35;1.90;;;;;;;;;;5117189;28;20043;-80
2023/07/19 13:25:05;;;;;;;5.75;2.33;;;;;;;;;;5122671;28;20067;-80
2023/07/19 13:27:33;;;;;;;4.38;1.95;;;;;;;;;;5121105;28;20496;-81
2023/07/19 13:30:00;;;;;;;2.92;1.98;;;;;;;;;;5119653;28;20044;-80
2023/07/19 13:32:28;;;;;;;2.63;1.98;;;;;;;;;;5120552;28;20062;-80
2023/07/19 13:34:56;;;;;;;2.55;1.90;;;;;;;;;;5119730;28;20048;-80
2023/07/19 13:37:23;;;;;;;4.00;2.05;;;;;;;;;;5119144;28;20062;-80
2023/07/19 13:40:11;;;;;;;3.67;1.83;;;;;;;;;;5118420;28;20048;-82
2023/07/19 13:42:38;;;;;;;3.00;2.05;;;;;;;;;;5116735;28;20078;-79
2023/07/19 13:45:06;;;;;;;4.30;1.85;;;;;;;;;;5117598;28;20085;-80
2023/07/19 13:47:33;;;;;;;2.08;1.88;;;;;;;;;;5117290;28;20043;-80
2023/07/19 13:50:00;;;;;;;3.90;1.63;;;;;;;;;;5117648;28;20048;-81
2023/07/19 13:52:28;;;;;;;10.93;2.65;;;;;;;;;;5115572;28;20079;-80
2023/07/19 13:54:55;;;;;;;5.57;2.10;;;;;;;;;;5116037;28;20048;-81
2023/07/19 13:57:23;;;;;;;3.90;1.88;;;;;;;;;;5115582;28;20095;-80
2023/07/19 13:59:50;;;;;;;7.28;2.20;;;;;;;;;;5115938;28;20096;-79
2023/07/19 14:02:17;;;;;;;5.43;2.10;;;;;;;;;;5116054;28;20128;-80
2023/07/19 14:04:53;;;;;;;3.10;2.00;;;;;;;;;;5117178;28;20052;-81
2023/07/19 14:07:21;;;;;;;4.28;2.00;;;;;;;;;;5115137;28;20051;-79
2023/07/19 14:09:49;;;;;;;4.50;2.00;;;;;;;;;;5114718;28;20100;-80
2023/07/19 14:12:18;;;;;;;7.38;1.98;;;;;;;;;;5115314;28;20077;-80
2023/07/19 14:14:45;;;;;;;5.50;2.10;;;;;;;;;;5116445;28;20043;-78
2023/07/19 14:17:13;;;;;;;21.35;3.13;;;;;;;;;;5115141;28;20899;-79
2023/07/19 14:19:40;;;;;;;9.23;2.58;;;;;;;;;;5115142;28;20052;-80
2023/07/19 14:22:07;;;;;;;3.90;1.75;;;;;;;;;;5114320;28;20050;-80
2023/07/19 14:24:35;;;;;;;1.63;1.52;;;;;;;;;;5114213;28;20044;-78
2023/07/19 14:27:06;;;;;;;6.32;2.30;;;;;;;;;;5113277;28;20048;-78
2023/07/19 14:29:33;;;;;;;5.78;2.20;;;;;;;;;;5115782;28;20044;-79
2023/07/19 14:32:01;;;;;;;7.00;1.90;;;;;;;;;;5115206;27;20055;-79
2023/07/19 14:34:31;;;;;;;5.00;1.98;;;;;;;;;;5113938;28;20047;-80
2023/07/19 14:37:05;;;;;;;3.97;1.58;;;;;;;;;;5113598;28;20055;-79
2023/07/19 14:39:33;;;;;;;4.53;1.50;;;;;;;;;;5113307;28;20047;-80
2023/07/19 14:42:00;;;;;;;2.97;1.50;;;;;;;;;;5114725;28;20088;-78
2023/07/19 14:44:28;;;;;;;5.28;1.85;;;;;;;;;;5114849;28;20050;-80
2023/07/19 14:46:57;;;;;;;7.25;1.58;;;;;;;;;;5113186;28;20068;-79
2023/07/19 14:49:24;;;;;;;4.63;1.85;;;;;;;;;;5112858;28;20051;-79
2023/07/19 14:51:53;;;;;;;8.45;1.83;;;;;;;;;;5114587;28;20168;-78